sensor_id;sensor_type;location;lat;lon;timestamp;pressure;altitude;pressure_sealevel;temperature;humidity
11314;BME280;5712;48.858;9.206;2024-02-23T00:00:44;96159.41;;;6.74;100.00
11314;BME280;5712;48.858;9.206;2024-02-23T00:03:11;96168.94;;;6.75;100.00
11314;BME280;5712;48.858;9.206;2024-02-23T00:05:37;96172.78;;;6.71;100.00
11314;BME280;5712;48.858;9.206;2024-02-23T00:08:04;96174.44;;;6.72;100.00
11314;BME280;5712;48.858;9.206;2024-02-23T00:10:32;96177.91;;;6.73;100.00
11314;BME280;5712;48.858;9.206;2024-02-23T00:12:59;96170.53;;;6.67;100.00
11314;BME280;5712;48.858;9.206;2024-02-23T00:15:26;96172.72;;;6.62;100.00
11314;BME280;5712;48.858;9.206;2024-02-23T00:17:52;96170.22;;;6.60;100.00
11314;BME280;5712;48.858;9.206;2024-02-23T00:20:19;96168.31;;;6.62;100.00
11314;BME280;5712;48.858;9.206;2024-02-23T00:22:45;96172.66;;;6.52;100.00
11314;BME280;5712;48.858;9.206;2024-02-23T00:25:12;96185.09;;;6.50;100.00
11314;BME280;5712;48.858;9.206;2024-02-23T00:27:40;96207.28;;;6.46;100.00
11314;BME280;5712;48.858;9.206;2024-02-23T00:30:07;96216.13;;;6.45;100.00
11314;BME280;5712;48.858;9.206;2024-02-23T00:32:34;96215.16;;;6.46;100.00
11314;BME280;5712;48.858;9.206;2024-02-23T00:35:01;96228.28;;;6.46;100.00
11314;BME280;5712;48.858;9.206;2024-02-23T00:37:28;96226.34;;;6.48;100.00
11314;BME280;5712;48.858;9.206;2024-02-23T00:39:54;96232.69;;;6.46;100.00
11314;BME280;5712;48.858;9.206;2024-02-23T00:42:20;96243.84;;;6.38;100.00
11314;BME280;5712;48.858;9.206;2024-02-23T00:44:48;96237.50;;;6.41;100.00
11314;BME280;5712;48.858;9.206;2024-02-23T00:47:15;96219.25;;;6.39;100.00
11314;BME280;5712;48.858;9.206;2024-02-23T00:49:42;96220.69;;;6.43;100.00
11314;BME280;5712;48.858;9.206;2024-02-23T00:52:09;96226.75;;;6.44;100.00
11314;BME280;5712;48.858;9.206;2024-02-23T00:54:35;96224.22;;;6.42;100.00
11314;BME280;5712;48.858;9.206;2024-02-23T00:57:02;96222.56;;;6.41;100.00
11314;BME280;5712;48.858;9.206;2024-02-23T00:59:28;96229.47;;;6.42;100.00
11314;BME280;5712;48.858;9.206;2024-02-23T01:01:56;96232.69;;;6.46;100.00
11314;BME280;5712;48.858;9.206;2024-02-23T01:04:23;96251.03;;;6.46;100.00
11314;BME280;5712;48.858;9.206;2024-02-23T01:06:49;96260.97;;;6.42;100.00
11314;BME280;5712;48.858;9.206;2024-02-23T01:09:16;96251.19;;;6.44;100.00
11314;BME280;5712;48.858;9.206;2024-02-23T01:11:45;96239.75;;;6.45;100.00
11314;BME280;5712;48.858;9.206;2024-02-23T01:14:12;96249.97;;;6.48;100.00
11314;BME280;5712;48.858;9.206;2024-02-23T01:16:38;96254.13;;;6.51;100.00
11314;BME280;5712;48.858;9.206;2024-02-23T01:19:06;96253.31;;;6.50;100.00
11314;BME280;5712;48.858;9.206;2024-02-23T01:21:33;96251.16;;;6.55;100.00
11314;BME280;5712;48.858;9.206;2024-02-23T01:23:59;96226.56;;;6.56;100.00
11314;BME280;5712;48.858;9.206;2024-02-23T01:26:25;96221.78;;;6.61;100.00
11314;BME280;5712;48.858;9.206;2024-02-23T01:28:52;96232.06;;;6.53;100.00
11314;BME280;5712;48.858;9.206;2024-02-23T01:31:19;96239.22;;;6.51;100.00
11314;BME280;5712;48.858;9.206;2024-02-23T01:33:45;96245.94;;;6.44;100.00
11314;BME280;5712;48.858;9.206;2024-02-23T01:36:13;96255.03;;;6.40;100.00
11314;BME280;5712;48.858;9.206;2024-02-23T01:38:40;96261.72;;;6.33;100.00
11314;BME280;5712;48.858;9.206;2024-02-23T01:41:08;96270.81;;;6.29;100.00
11314;BME280;5712;48.858;9.206;2024-02-23T01:43:36;96279.16;;;6.23;100.00
11314;BME280;5712;48.858;9.206;2024-02-23T01:46:03;96289.44;;;6.26;100.00
11314;BME280;5712;48.858;9.206;2024-02-23T01:48:31;96289.91;;;6.31;100.00
11314;BME280;5712;48.858;9.206;2024-02-23T01:50:58;96283.56;;;6.34;100.00
11314;BME280;5712;48.858;9.206;2024-02-23T01:53:26;96287.47;;;6.39;100.00
11314;BME280;5712;48.858;9.206;2024-02-23T01:55:54;96279.91;;;6.46;100.00
11314;BME280;5712;48.858;9.206;2024-02-23T01:58:21;96279.56;;;6.50;100.00
11314;BME280;5712;48.858;9.206;2024-02-23T02:00:47;96272.97;;;6.56;100.00
11314;BME280;5712;48.858;9.206;2024-02-23T02:03:14;96273.53;;;6.59;100.00
11314;BME280;5712;48.858;9.206;2024-02-23T02:05:40;96281.28;;;6.61;100.00
11314;BME280;5712;48.858;9.206;2024-02-23T02:08:07;96281.03;;;6.64;100.00
11314;BME280;5712;48.858;9.206;2024-02-23T02:10:35;96295.00;;;6.64;100.00
11314;BME280;5712;48.858;9.206;2024-02-23T02:13:02;96300.25;;;6.64;100.00
11314;BME280;5712;48.858;9.206;2024-02-23T02:15:29;96290.94;;;6.60;100.00
11314;BME280;5712;48.858;9.206;2024-02-23T02:17:56;96291.09;;;6.59;100.00
11314;BME280;5712;48.858;9.206;2024-02-23T02:20:24;96310.53;;;6.56;100.00
11314;BME280;5712;48.858;9.206;2024-02-23T02:22:51;96313.78;;;6.49;100.00
11314;BME280;5712;48.858;9.206;2024-02-23T02:25:17;96322.50;;;6.49;100.00
11314;BME280;5712;48.858;9.206;2024-02-23T02:27:45;96331.06;;;6.51;100.00
11314;BME280;5712;48.858;9.206;2024-02-23T02:30:12;96337.28;;;6.50;100.00
11314;BME280;5712;48.858;9.206;2024-02-23T02:32:39;96328.94;;;6.45;100.00
11314;BME280;5712;48.858;9.206;2024-02-23T02:35:06;96336.13;;;6.43;100.00
11314;BME280;5712;48.858;9.206;2024-02-23T02:37:32;96322.53;;;6.38;100.00
11314;BME280;5712;48.858;9.206;2024-02-23T02:39:59;96316.72;;;6.35;100.00
11314;BME280;5712;48.858;9.206;2024-02-23T02:42:25;96317.78;;;6.32;100.00
11314;BME280;5712;48.858;9.206;2024-02-23T02:44:55;96317.78;;;6.32;100.00
11314;BME280;5712;48.858;9.206;2024-02-23T02:47:21;96316.13;;;6.31;100.00
11314;BME280;5712;48.858;9.206;2024-02-23T02:49:49;96309.19;;;6.30;100.00
11314;BME280;5712;48.858;9.206;2024-02-23T02:52:16;96314.09;;;6.35;100.00
11314;BME280;5712;48.858;9.206;2024-02-23T02:54:42;96312.78;;;6.29;100.00
11314;BME280;5712;48.858;9.206;2024-02-23T02:57:09;96311.56;;;6.33;100.00
11314;BME280;5712;48.858;9.206;2024-02-23T02:59:35;96306.13;;;6.25;100.00
11314;BME280;5712;48.858;9.206;2024-02-23T03:02:04;96312.09;;;6.16;100.00
11314;BME280;5712;48.858;9.206;2024-02-23T03:04:30;96319.28;;;6.14;100.00
11314;BME280;5712;48.858;9.206;2024-02-23T03:06:57;96337.25;;;6.08;100.00
11314;BME280;5712;48.858;9.206;2024-02-23T03:09:23;96334.31;;;6.01;100.00
11314;BME280;5712;48.858;9.206;2024-02-23T03:11:50;96343.38;;;5.97;100.00
11314;BME280;5712;48.858;9.206;2024-02-23T03:14:16;96313.09;;;5.93;100.00
11314;BME280;5712;48.858;9.206;2024-02-23T03:16:45;96317.28;;;5.85;100.00
11314;BME280;5712;48.858;9.206;2024-02-23T03:19:14;96323.81;;;5.79;100.00
11314;BME280;5712;48.858;9.206;2024-02-23T03:21:40;96330.97;;;5.77;100.00
11314;BME280;5712;48.858;9.206;2024-02-23T03:24:07;96324.69;;;5.80;100.00
11314;BME280;5712;48.858;9.206;2024-02-23T03:26:34;96308.50;;;5.86;100.00
11314;BME280;5712;48.858;9.206;2024-02-23T03:29:00;96311.44;;;5.92;100.00
11314;BME280;5712;48.858;9.206;2024-02-23T03:31:26;96319.06;;;5.95;100.00
11314;BME280;5712;48.858;9.206;2024-02-23T03:33:53;96327.63;;;5.97;100.00
11314;BME280;5712;48.858;9.206;2024-02-23T03:36:21;96320.47;;;5.99;100.00
11314;BME280;5712;48.858;9.206;2024-02-23T03:38:47;96287.63;;;5.95;100.00
11314;BME280;5712;48.858;9.206;2024-02-23T03:41:14;96281.28;;;5.98;100.00
11314;BME280;5712;48.858;9.206;2024-02-23T03:43:40;96285.69;;;5.97;100.00
11314;BME280;5712;48.858;9.206;2024-02-23T03:46:07;96295.34;;;5.97;100.00
11314;BME280;5712;48.858;9.206;2024-02-23T03:48:33;96305.97;;;5.95;100.00
11314;BME280;5712;48.858;9.206;2024-02-23T03:51:03;96293.09;;;5.92;100.00
11314;BME280;5712;48.858;9.206;2024-02-23T03:53:31;96299.28;;;5.91;100.00
11314;BME280;5712;48.858;9.206;2024-02-23T03:55:57;96292.50;;;5.89;100.00
11314;BME280;5712;48.858;9.206;2024-02-23T03:58:24;96312.88;;;5.85;100.00
11314;BME280;5712;48.858;9.206;2024-02-23T04:00:51;96300.63;;;5.86;99.38
11314;BME280;5712;48.858;9.206;2024-02-23T04:03:18;96300.97;;;5.81;98.56
11314;BME280;5712;48.858;9.206;2024-02-23T04:05:44;96295.09;;;5.78;98.97
11314;BME280;5712;48.858;9.206;2024-02-23T04:08:12;96278.56;;;5.77;97.69
11314;BME280;5712;48.858;9.206;2024-02-23T04:10:41;96282.75;;;5.80;97.43
11314;BME280;5712;48.858;9.206;2024-02-23T04:13:08;96266.28;;;5.78;95.76
11314;BME280;5712;48.858;9.206;2024-02-23T04:15:35;96285.94;;;5.72;97.26
11314;BME280;5712;48.858;9.206;2024-02-23T04:18:02;96272.72;;;5.74;93.44
11314;BME280;5712;48.858;9.206;2024-02-23T04:20:28;96277.38;;;5.70;94.72
11314;BME280;5712;48.858;9.206;2024-02-23T04:22:55;96280.94;;;5.69;93.66
11314;BME280;5712;48.858;9.206;2024-02-23T04:25:21;96292.63;;;5.65;95.56
11314;BME280;5712;48.858;9.206;2024-02-23T04:27:49;96285.94;;;5.61;94.06
11314;BME280;5712;48.858;9.206;2024-02-23T04:30:16;96266.91;;;5.59;93.07
11314;BME280;5712;48.858;9.206;2024-02-23T04:32:42;96271.19;;;5.60;92.61
11314;BME280;5712;48.858;9.206;2024-02-23T04:35:09;96268.94;;;5.56;93.04
11314;BME280;5712;48.858;9.206;2024-02-23T04:37:36;96257.88;;;5.52;90.52
11314;BME280;5712;48.858;9.206;2024-02-23T04:40:03;96256.31;;;5.50;92.05
11314;BME280;5712;48.858;9.206;2024-02-23T04:42:30;96252.38;;;5.55;89.83
11314;BME280;5712;48.858;9.206;2024-02-23T04:44:58;96250.00;;;5.52;88.80
11314;BME280;5712;48.858;9.206;2024-02-23T04:47:25;96266.22;;;5.46;89.61
11314;BME280;5712;48.858;9.206;2024-02-23T04:49:52;96248.81;;;5.45;88.81
11314;BME280;5712;48.858;9.206;2024-02-23T04:52:18;96260.72;;;5.38;90.61
11314;BME280;5712;48.858;9.206;2024-02-23T04:54:45;96278.84;;;5.41;91.47
11314;BME280;5712;48.858;9.206;2024-02-23T04:57:11;96294.53;;;5.30;95.08
11314;BME280;5712;48.858;9.206;2024-02-23T04:59:38;96289.56;;;5.27;95.20
11314;BME280;5712;48.858;9.206;2024-02-23T05:02:06;96289.28;;;5.19;96.64
11314;BME280;5712;48.858;9.206;2024-02-23T05:04:33;96293.56;;;5.20;98.00
11314;BME280;5712;48.858;9.206;2024-02-23T05:06:59;96285.47;;;5.12;98.01
11314;BME280;5712;48.858;9.206;2024-02-23T05:09:26;96279.06;;;5.05;97.89
11314;BME280;5712;48.858;9.206;2024-02-23T05:11:53;96297.00;;;4.99;99.40
11314;BME280;5712;48.858;9.206;2024-02-23T05:14:20;96284.97;;;4.96;99.62
11314;BME280;5712;48.858;9.206;2024-02-23T05:16:46;96286.66;;;4.97;99.45
11314;BME280;5712;48.858;9.206;2024-02-23T05:19:14;96273.81;;;4.94;96.84
11314;BME280;5712;48.858;9.206;2024-02-23T05:21:41;96276.41;;;4.94;96.60
11314;BME280;5712;48.858;9.206;2024-02-23T05:24:11;96275.34;;;4.86;97.22
11314;BME280;5712;48.858;9.206;2024-02-23T05:26:38;96283.53;;;4.81;97.56
11314;BME280;5712;48.858;9.206;2024-02-23T05:29:05;96293.06;;;4.82;99.48
11314;BME280;5712;48.858;9.206;2024-02-23T05:31:44;96294.97;;;4.80;99.23
11314;BME280;5712;48.858;9.206;2024-02-23T05:34:11;96309.22;;;4.76;98.44
11314;BME280;5712;48.858;9.206;2024-02-23T05:36:39;96302.91;;;4.79;98.68
11314;BME280;5712;48.858;9.206;2024-02-23T05:39:07;96306.38;;;4.79;98.54
11314;BME280;5712;48.858;9.206;2024-02-23T05:41:35;96304.22;;;4.73;98.17
11314;BME280;5712;48.858;9.206;2024-02-23T05:44:01;96316.56;;;4.71;99.29
11314;BME280;5712;48.858;9.206;2024-02-23T05:46:29;96325.16;;;4.73;100.00
11314;BME280;5712;48.858;9.206;2024-02-23T05:48:54;96337.75;;;4.68;100.00
11314;BME280;5712;48.858;9.206;2024-02-23T05:51:21;96325.81;;;4.64;100.00
11314;BME280;5712;48.858;9.206;2024-02-23T05:53:49;96332.34;;;4.59;100.00
11314;BME280;5712;48.858;9.206;2024-02-23T05:56:15;96332.97;;;4.62;100.00
11314;BME280;5712;48.858;9.206;2024-02-23T05:58:42;96336.03;;;4.56;100.00
11314;BME280;5712;48.858;9.206;2024-02-23T06:01:08;96342.06;;;4.57;100.00
11314;BME280;5712;48.858;9.206;2024-02-23T06:03:35;96344.31;;;4.50;100.00
11314;BME280;5712;48.858;9.206;2024-02-23T06:06:01;96341.31;;;4.44;100.00
11314;BME280;5712;48.858;9.206;2024-02-23T06:08:28;96345.66;;;4.32;100.00
11314;BME280;5712;48.858;9.206;2024-02-23T06:10:56;96348.63;;;4.28;100.00
11314;BME280;5712;48.858;9.206;2024-02-23T06:13:24;96348.72;;;4.26;100.00
11314;BME280;5712;48.858;9.206;2024-02-23T06:15:51;96354.16;;;4.23;100.00
11314;BME280;5712;48.858;9.206;2024-02-23T06:18:17;96365.38;;;4.25;100.00
11314;BME280;5712;48.858;9.206;2024-02-23T06:20:44;96383.66;;;4.25;100.00
11314;BME280;5712;48.858;9.206;2024-02-23T06:23:10;96378.94;;;4.30;100.00
11314;BME280;5712;48.858;9.206;2024-02-23T06:25:37;96370.16;;;4.31;100.00
11314;BME280;5712;48.858;9.206;2024-02-23T06:28:05;96376.81;;;4.35;100.00
11314;BME280;5712;48.858;9.206;2024-02-23T06:30:32;96364.25;;;4.40;100.00
11314;BME280;5712;48.858;9.206;2024-02-23T06:32:59;96375.16;;;4.34;100.00
11314;BME280;5712;48.858;9.206;2024-02-23T06:35:25;96373.94;;;4.27;100.00
11314;BME280;5712;48.858;9.206;2024-02-23T06:37:51;96381.25;;;4.22;100.00
11314;BME280;5712;48.858;9.206;2024-02-23T06:40:18;96388.16;;;4.23;100.00
11314;BME280;5712;48.858;9.206;2024-02-23T06:42:44;96382.09;;;4.23;100.00
11314;BME280;5712;48.858;9.206;2024-02-23T06:45:13;96384.63;;;4.24;100.00
11314;BME280;5712;48.858;9.206;2024-02-23T06:47:39;96384.81;;;4.21;100.00
11314;BME280;5712;48.858;9.206;2024-02-23T06:50:06;96382.53;;;4.17;100.00
11314;BME280;5712;48.858;9.206;2024-02-23T06:52:36;96391.72;;;4.22;100.00
11314;BME280;5712;48.858;9.206;2024-02-23T06:55:04;96389.41;;;4.30;100.00
11314;BME280;5712;48.858;9.206;2024-02-23T06:57:31;96387.91;;;4.39;100.00
11314;BME280;5712;48.858;9.206;2024-02-23T06:59:57;96384.72;;;4.46;100.00
11314;BME280;5712;48.858;9.206;2024-02-23T07:02:25;96390.25;;;4.54;100.00
11314;BME280;5712;48.858;9.206;2024-02-23T07:04:51;96395.25;;;4.57;100.00
11314;BME280;5712;48.858;9.206;2024-02-23T07:07:19;96389.06;;;4.58;100.00
11314;BME280;5712;48.858;9.206;2024-02-23T07:09:46;96390.53;;;4.62;100.00
11314;BME280;5712;48.858;9.206;2024-02-23T07:12:12;96396.47;;;4.64;100.00
11314;BME280;5712;48.858;9.206;2024-02-23T07:14:39;96401.34;;;4.69;100.00
11314;BME280;5712;48.858;9.206;2024-02-23T07:17:08;96398.91;;;4.78;100.00
11314;BME280;5712;48.858;9.206;2024-02-23T07:19:36;96399.13;;;4.75;100.00
11314;BME280;5712;48.858;9.206;2024-02-23T07:22:03;96405.47;;;4.84;100.00
11314;BME280;5712;48.858;9.206;2024-02-23T07:24:29;96401.69;;;4.88;100.00
11314;BME280;5712;48.858;9.206;2024-02-23T07:26:57;96400.13;;;4.85;100.00
11314;BME280;5712;48.858;9.206;2024-02-23T07:29:24;96402.75;;;4.85;100.00
11314;BME280;5712;48.858;9.206;2024-02-23T07:31:50;96413.22;;;4.85;100.00
11314;BME280;5712;48.858;9.206;2024-02-23T07:34:17;96408.59;;;4.89;100.00
11314;BME280;5712;48.858;9.206;2024-02-23T07:36:44;96406.28;;;4.84;100.00
11314;BME280;5712;48.858;9.206;2024-02-23T07:39:11;96410.34;;;4.88;100.00
11314;BME280;5712;48.858;9.206;2024-02-23T07:41:37;96403.22;;;4.90;100.00
11314;BME280;5712;48.858;9.206;2024-02-23T07:44:04;96396.00;;;4.94;100.00
11314;BME280;5712;48.858;9.206;2024-02-23T07:46:30;96405.16;;;4.99;100.00
11314;BME280;5712;48.858;9.206;2024-02-23T07:48:57;96399.47;;;5.05;100.00
11314;BME280;5712;48.858;9.206;2024-02-23T07:51:23;96398.56;;;5.17;100.00
11314;BME280;5712;48.858;9.206;2024-02-23T07:53:51;96392.25;;;5.20;100.00
11314;BME280;5712;48.858;9.206;2024-02-23T07:56:18;96401.06;;;5.19;100.00
11314;BME280;5712;48.858;9.206;2024-02-23T07:58:44;96403.78;;;5.17;100.00
11314;BME280;5712;48.858;9.206;2024-02-23T08:01:11;96409.25;;;5.14;100.00
11314;BME280;5712;48.858;9.206;2024-02-23T08:03:37;96406.53;;;5.16;100.00
11314;BME280;5712;48.858;9.206;2024-02-23T08:06:04;96414.72;;;5.11;100.00
11314;BME280;5712;48.858;9.206;2024-02-23T08:08:30;96415.91;;;5.07;100.00
11314;BME280;5712;48.858;9.206;2024-02-23T08:11:01;96422.13;;;5.17;100.00
11314;BME280;5712;48.858;9.206;2024-02-23T08:13:28;96409.03;;;5.17;100.00
11314;BME280;5712;48.858;9.206;2024-02-23T08:15:55;96404.78;;;5.27;100.00
11314;BME280;5712;48.858;9.206;2024-02-23T08:18:21;96396.19;;;5.25;100.00
11314;BME280;5712;48.858;9.206;2024-02-23T08:20:48;96393.47;;;5.27;100.00
11314;BME280;5712;48.858;9.206;2024-02-23T08:23:15;96396.19;;;5.25;100.00
11314;BME280;5712;48.858;9.206;2024-02-23T08:25:41;96392.84;;;5.23;100.00
11314;BME280;5712;48.858;9.206;2024-02-23T08:28:09;96398.09;;;5.23;100.00
11314;BME280;5712;48.858;9.206;2024-02-23T08:30:36;96392.63;;;5.26;100.00
11314;BME280;5712;48.858;9.206;2024-02-23T08:33:02;96394.31;;;5.27;100.00
11314;BME280;5712;48.858;9.206;2024-02-23T08:35:29;96399.53;;;5.27;100.00
11314;BME280;5712;48.858;9.206;2024-02-23T08:37:56;96393.22;;;5.30;100.00
11314;BME280;5712;48.858;9.206;2024-02-23T08:40:22;96392.41;;;5.29;100.00
11314;BME280;5712;48.858;9.206;2024-02-23T08:42:49;96394.06;;;5.30;100.00
11314;BME280;5712;48.858;9.206;2024-02-23T08:45:18;96395.97;;;5.28;100.00
11314;BME280;5712;48.858;9.206;2024-02-23T08:47:44;96396.56;;;5.32;100.00
11314;BME280;5712;48.858;9.206;2024-02-23T08:50:12;96390.00;;;5.26;100.00
11314;BME280;5712;48.858;9.206;2024-02-23T08:52:39;96394.75;;;5.32;100.00
11314;BME280;5712;48.858;9.206;2024-02-23T08:55:07;96404.47;;;5.43;100.00
11314;BME280;5712;48.858;9.206;2024-02-23T08:57:33;96402.53;;;5.45;100.00
11314;BME280;5712;48.858;9.206;2024-02-23T09:00:00;96393.38;;;5.50;100.00
11314;BME280;5712;48.858;9.206;2024-02-23T09:02:28;96394.56;;;5.68;100.00
11314;BME280;5712;48.858;9.206;2024-02-23T09:04:55;96397.47;;;5.76;100.00
11314;BME280;5712;48.858;9.206;2024-02-23T09:07:21;96383.91;;;5.82;100.00
11314;BME280;5712;48.858;9.206;2024-02-23T09:09:48;96379.13;;;5.87;100.00
11314;BME280;5712;48.858;9.206;2024-02-23T09:12:15;96385.09;;;6.00;100.00
11314;BME280;5712;48.858;9.206;2024-02-23T09:14:42;96384.13;;;6.01;100.00
11314;BME280;5712;48.858;9.206;2024-02-23T09:17:08;96380.06;;;6.08;99.25
11314;BME280;5712;48.858;9.206;2024-02-23T09:19:37;96381.47;;;6.12;99.38
11314;BME280;5712;48.858;9.206;2024-02-23T09:22:04;96375.03;;;6.16;96.67
11314;BME280;5712;48.858;9.206;2024-02-23T09:24:31;96371.59;;;6.16;96.27
11314;BME280;5712;48.858;9.206;2024-02-23T09:26:57;96373.38;;;6.15;96.04
11314;BME280;5712;48.858;9.206;2024-02-23T09:29:24;96357.38;;;6.18;92.70
11314;BME280;5712;48.858;9.206;2024-02-23T09:31:51;96357.75;;;6.14;92.80
11314;BME280;5712;48.858;9.206;2024-02-23T09:34:18;96346.56;;;6.23;91.00
11314;BME280;5712;48.858;9.206;2024-02-23T09:36:45;96339.25;;;6.26;91.14
11314;BME280;5712;48.858;9.206;2024-02-23T09:39:13;96339.84;;;6.30;89.86
11314;BME280;5712;48.858;9.206;2024-02-23T09:41:41;96339.00;;;6.29;87.80
11314;BME280;5712;48.858;9.206;2024-02-23T09:44:08;96336.53;;;6.28;87.61
11314;BME280;5712;48.858;9.206;2024-02-23T09:46:36;96326.34;;;6.34;85.42
11314;BME280;5712;48.858;9.206;2024-02-23T09:49:03;96339.47;;;6.34;86.28
11314;BME280;5712;48.858;9.206;2024-02-23T09:51:31;96348.50;;;6.41;87.11
11314;BME280;5712;48.858;9.206;2024-02-23T09:54:02;96339.94;;;6.39;86.72
11314;BME280;5712;48.858;9.206;2024-02-23T09:56:29;96332.19;;;6.38;84.56
11314;BME280;5712;48.858;9.206;2024-02-23T09:58:56;96336.84;;;6.34;85.36
11314;BME280;5712;48.858;9.206;2024-02-23T10:01:27;96349.72;;;6.37;86.68
11314;BME280;5712;48.858;9.206;2024-02-23T10:03:56;96342.28;;;6.53;86.21
11314;BME280;5712;48.858;9.206;2024-02-23T10:06:26;96328.94;;;6.77;84.14
11314;BME280;5712;48.858;9.206;2024-02-23T10:08:53;96330.34;;;7.01;82.92
11314;BME280;5712;48.858;9.206;2024-02-23T10:11:22;96322.91;;;7.27;81.69
11314;BME280;5712;48.858;9.206;2024-02-23T10:13:49;96313.66;;;7.52;79.25
11314;BME280;5712;48.858;9.206;2024-02-23T10:16:17;96310.63;;;7.57;76.21
11314;BME280;5712;48.858;9.206;2024-02-23T10:18:45;96307.63;;;7.61;76.69
11314;BME280;5712;48.858;9.206;2024-02-23T10:21:12;96325.59;;;7.66;75.88
11314;BME280;5712;48.858;9.206;2024-02-23T10:23:38;96342.53;;;7.73;77.20
11314;BME280;5712;48.858;9.206;2024-02-23T10:26:06;96324.81;;;7.75;74.11
11314;BME280;5712;48.858;9.206;2024-02-23T10:28:34;96331.03;;;7.74;74.72
11314;BME280;5712;48.858;9.206;2024-02-23T10:31:01;96338.38;;;7.80;75.90
11314;BME280;5712;48.858;9.206;2024-02-23T10:33:28;96341.50;;;7.94;76.59
11314;BME280;5712;48.858;9.206;2024-02-23T10:35:57;96332.66;;;8.05;75.85
11314;BME280;5712;48.858;9.206;2024-02-23T10:38:24;96328.81;;;8.09;74.44
11314;BME280;5712;48.858;9.206;2024-02-23T10:40:55;96327.16;;;8.08;74.86
11314;BME280;5712;48.858;9.206;2024-02-23T10:43:27;96323.22;;;7.93;74.74
11314;BME280;5712;48.858;9.206;2024-02-23T10:45:57;96324.88;;;7.94;75.08
11314;BME280;5712;48.858;9.206;2024-02-23T10:48:26;96322.38;;;7.83;74.73
11314;BME280;5712;48.858;9.206;2024-02-23T10:50:54;96318.84;;;7.73;74.29
11314;BME280;5712;48.858;9.206;2024-02-23T10:53:22;96330.59;;;7.69;76.08
11314;BME280;5712;48.858;9.206;2024-02-23T10:55:52;96334.19;;;7.68;76.15
11314;BME280;5712;48.858;9.206;2024-02-23T10:58:26;96318.19;;;7.80;75.61
11314;BME280;5712;48.858;9.206;2024-02-23T11:00:53;96312.53;;;7.85;74.51
11314;BME280;5712;48.858;9.206;2024-02-23T11:03:28;96322.09;;;7.86;75.08
11314;BME280;5712;48.858;9.206;2024-02-23T11:05:54;96329.97;;;7.86;75.86
11314;BME280;5712;48.858;9.206;2024-02-23T11:08:21;96314.06;;;7.87;74.22
11314;BME280;5712;48.858;9.206;2024-02-23T11:10:51;96312.44;;;7.96;74.28
11314;BME280;5712;48.858;9.206;2024-02-23T11:13:18;96308.97;;;8.05;75.04
11314;BME280;5712;48.858;9.206;2024-02-23T11:15:44;96278.41;;;8.13;71.72
11314;BME280;5712;48.858;9.206;2024-02-23T11:18:28;96282.59;;;8.25;72.31
11314;BME280;5712;48.858;9.206;2024-02-23T11:20:55;96296.75;;;8.34;73.72
11314;BME280;5712;48.858;9.206;2024-02-23T11:23:22;96277.34;;;8.35;71.87
11314;BME280;5712;48.858;9.206;2024-02-23T11:26:04;96286.09;;;8.35;72.30
11314;BME280;5712;48.858;9.206;2024-02-23T11:28:31;96290.94;;;8.40;73.04
11314;BME280;5712;48.858;9.206;2024-02-23T11:30:58;96297.75;;;8.52;72.85
11314;BME280;5712;48.858;9.206;2024-02-23T11:33:29;96284.03;;;8.58;71.92
11314;BME280;5712;48.858;9.206;2024-02-23T11:36:05;96270.00;;;8.67;70.71
11314;BME280;5712;48.858;9.206;2024-02-23T11:38:32;96284.28;;;8.74;71.33
11314;BME280;5712;48.858;9.206;2024-02-23T11:40:59;96276.13;;;8.77;71.51
11314;BME280;5712;48.858;9.206;2024-02-23T11:43:26;96285.41;;;8.81;72.18
11314;BME280;5712;48.858;9.206;2024-02-23T11:45:53;96275.69;;;8.91;70.59
11314;BME280;5712;48.858;9.206;2024-02-23T11:48:19;96260.44;;;8.85;68.78
11314;BME280;5712;48.858;9.206;2024-02-23T11:50:49;96260.00;;;8.80;69.19
11314;BME280;5712;48.858;9.206;2024-02-23T11:53:16;96265.97;;;8.91;70.07
11314;BME280;5712;48.858;9.206;2024-02-23T11:55:44;96264.56;;;8.97;70.07
11314;BME280;5712;48.858;9.206;2024-02-23T11:58:11;96253.19;;;9.06;68.55
11314;BME280;5712;48.858;9.206;2024-02-23T12:00:37;96253.59;;;9.11;68.49
11314;BME280;5712;48.858;9.206;2024-02-23T12:03:05;96225.31;;;9.13;66.88
11314;BME280;5712;48.858;9.206;2024-02-23T12:05:32;96235.72;;;9.05;67.07
11314;BME280;5712;48.858;9.206;2024-02-23T12:08:00;96240.69;;;9.08;68.19
11314;BME280;5712;48.858;9.206;2024-02-23T12:10:27;96254.56;;;9.10;68.99
11314;BME280;5712;48.858;9.206;2024-02-23T12:12:55;96236.28;;;9.08;67.99
11314;BME280;5712;48.858;9.206;2024-02-23T12:15:21;96231.81;;;9.09;67.87
11314;BME280;5712;48.858;9.206;2024-02-23T12:17:48;96238.38;;;9.05;68.49
11314;BME280;5712;48.858;9.206;2024-02-23T12:20:15;96240.16;;;9.04;68.38
11314;BME280;5712;48.858;9.206;2024-02-23T12:22:41;96226.34;;;8.93;67.36
11314;BME280;5712;48.858;9.206;2024-02-23T12:25:11;96219.69;;;8.89;67.18
11314;BME280;5712;48.858;9.206;2024-02-23T12:27:38;96205.81;;;8.87;66.22
11314;BME280;5712;48.858;9.206;2024-02-23T12:30:06;96208.63;;;8.76;66.62
11314;BME280;5712;48.858;9.206;2024-02-23T12:32:34;96228.97;;;8.74;67.79
11314;BME280;5712;48.858;9.206;2024-02-23T12:35:00;96231.91;;;8.71;68.50
11314;BME280;5712;48.858;9.206;2024-02-23T12:37:26;96240.47;;;8.73;69.04
11314;BME280;5712;48.858;9.206;2024-02-23T12:39:53;96232.00;;;8.88;68.25
11314;BME280;5712;48.858;9.206;2024-02-23T12:42:21;96231.88;;;8.90;68.41
11314;BME280;5712;48.858;9.206;2024-02-23T12:44:49;96239.06;;;8.97;68.81
11314;BME280;5712;48.858;9.206;2024-02-23T12:47:16;96235.72;;;9.05;68.43
11314;BME280;5712;48.858;9.206;2024-02-23T12:49:42;96234.59;;;9.17;68.72
11314;BME280;5712;48.858;9.206;2024-02-23T12:52:09;96233.88;;;9.15;68.68
11314;BME280;5712;48.858;9.206;2024-02-23T12:54:36;96239.69;;;9.18;69.15
11314;BME280;5712;48.858;9.206;2024-02-23T12:57:02;96237.06;;;9.18;68.50
11314;BME280;5712;48.858;9.206;2024-02-23T12:59:30;96228.19;;;9.19;67.49
11314;BME280;5712;48.858;9.206;2024-02-23T13:01:57;96192.84;;;9.12;64.58
11314;BME280;5712;48.858;9.206;2024-02-23T13:04:23;96191.31;;;9.10;64.69
11314;BME280;5712;48.858;9.206;2024-02-23T13:06:50;96215.03;;;9.10;66.09
11314;BME280;5712;48.858;9.206;2024-02-23T13:09:16;96212.13;;;9.13;66.05
11314;BME280;5712;48.858;9.206;2024-02-23T13:11:43;96217.41;;;9.13;66.34
11314;BME280;5712;48.858;9.206;2024-02-23T13:14:11;96208.91;;;9.19;65.43